Time;durP1;ratioP1;P1;durP2;ratioP2;P2;SDS_P1;SDS_P2;PMS_P1;PMS_P2;Temp;Humidity;BMP_temperature;BMP_pressure;BME280_temperature;BME280_humidity;BME280_pressure;Samples;Min_cycle;Max_cycle;Signal;HPM_P1;HPM_P2
2021/12/10 00:01:21;;;;;;;0.95;0.95;;;4.30;99.90;;;;;;5095208;28;20134;-81
2021/12/10 00:03:52;;;;;;;5.15;2.45;;;4.30;99.90;;;;;;5078576;28;20056;-80
2021/12/10 00:06:31;;;;;;;1.13;1.10;;;4.30;99.90;;;;;;5077683;28;20056;-79
2021/12/10 00:09:03;;;;;;;0.95;0.95;;;4.30;99.90;;;;;;5095278;28;20062;-80
2021/12/10 00:11:39;;;;;;;1.33;1.23;;;4.50;99.90;;;;;;5094104;28;20040;-82
2021/12/10 00:14:06;;;;;;;0.85;0.85;;;4.40;99.90;;;;;;5095512;28;20044;-76
2021/12/10 00:16:33;;;;;;;;;;;4.40;99.90;;;;;;5095103;28;20062;-78
2021/12/10 00:19:14;;;;;;;0.80;0.80;;;4.40;99.90;;;;;;5094900;28;19924;-76
2021/12/10 00:21:41;;;;;;;2.35;1.63;;;4.40;99.90;;;;;;5093906;28;20047;-79
2021/12/10 00:24:09;;;;;;;2.92;2.38;;;4.40;99.90;;;;;;5092815;28;20043;-78
2021/12/10 00:26:35;;;;;;;3.15;2.85;;;4.40;99.90;;;;;;5094911;28;20126;-78
2021/12/10 00:29:03;;;;;;;1.85;1.50;;;4.30;99.90;;;;;;5094806;28;20527;-80
2021/12/10 00:34:03;;;;;;;0.70;0.70;;;4.30;99.90;;;;;;5094753;28;20091;-78
2021/12/10 00:36:30;;;;;;;1.15;1.05;;;4.30;99.90;;;;;;5094571;28;20126;-79
2021/12/10 00:38:57;;;;;;;;;;;4.40;99.90;;;;;;5095018;28;20407;-80
2021/12/10 00:41:23;;;;;;;1.20;1.15;;;4.30;99.90;;;;;;5093293;28;19963;-79
2021/12/10 00:43:49;;;;;;;3.35;2.55;;;4.30;99.90;;;;;;5094535;28;20044;-78
2021/12/10 00:46:16;;;;;;;2.05;1.65;;;4.20;99.90;;;;;;5094450;28;20093;-77
2021/12/10 00:48:42;;;;;;;0.75;0.75;;;4.50;99.90;;;;;;5076441;28;20039;-77
2021/12/10 00:51:10;;;;;;;2.20;2.05;;;4.40;99.90;;;;;;5094748;28;20528;-77
2021/12/10 00:53:36;;;;;;;1.50;1.40;;;4.40;99.90;;;;;;5094303;28;20108;-77
2021/12/10 00:56:03;;;;;;;0.68;0.68;;;4.40;99.90;;;;;;5094362;28;20504;-80
2021/12/10 00:58:29;;;;;;;0.77;0.77;;;4.40;99.90;;;;;;5093941;28;20510;-81
2021/12/10 01:01:00;;;;;;;1.10;1.08;;;4.40;99.90;;;;;;5094373;28;20036;-79
2021/12/10 01:03:47;;;;;;;0.63;0.63;;;4.40;99.90;;;;;;5093024;28;20086;-80
2021/12/10 01:06:16;;;;;;;1.20;1.10;;;4.40;99.90;;;;;;5094096;28;20048;-77
2021/12/10 01:08:43;;;;;;;4.10;3.47;;;4.40;99.90;;;;;;5094456;28;20055;-77
2021/12/10 01:11:21;;;;;;;0.77;0.70;;;4.40;99.90;;;;;;5093160;28;20040;-77
2021/12/10 01:13:48;;;;;;;;;;;4.40;99.90;;;;;;5094499;28;20044;-76
2021/12/10 01:27:08;;;;;;;0.82;0.82;;;4.40;99.90;;;;;;5093647;28;20405;-81
2021/12/10 01:29:37;;;;;;;3.80;1.08;;;4.40;99.90;;;;;;5092898;28;20071;-77
2021/12/10 01:32:07;;;;;;;0.82;0.82;;;4.40;99.90;;;;;;5093797;28;20189;-78
2021/12/10 01:34:33;;;;;;;0.57;0.57;;;4.40;99.90;;;;;;5092662;28;20087;-80
2021/12/10 01:36:59;;;;;;;0.68;0.68;;;4.40;99.90;;;;;;5093596;28;20052;-81
2021/12/10 01:39:29;;;;;;;0.75;0.75;;;4.30;99.90;;;;;;5093812;28;20055;-83
2021/12/10 01:42:02;;;;;;;3.90;3.03;;;4.30;99.90;;;;;;5092418;28;20044;-80
2021/12/10 01:44:32;;;;;;;0.80;0.80;;;5.20;99.90;;;;;;5093677;28;20040;-81
2021/12/10 01:47:03;;;;;;;0.60;0.60;;;4.30;99.90;;;;;;5093736;28;20125;-83
2021/12/10 01:49:30;;;;;;;0.60;0.60;;;4.30;99.90;;;;;;5092510;28;20040;-78
2021/12/10 01:51:56;;;;;;;0.60;0.60;;;4.30;99.90;;;;;;5092494;28;20046;-79
2021/12/10 01:54:31;;;;;;;0.70;0.70;;;4.30;99.90;;;;;;5093072;28;20087;-84
2021/12/10 01:57:00;;;;;;;0.70;0.68;;;4.30;99.90;;;;;;5092710;28;20044;-80
2021/12/10 01:59:29;;;;;;;0.70;0.70;;;4.30;99.90;;;;;;5093442;28;20380;-79
2021/12/10 02:01:59;;;;;;;0.80;0.80;;;4.30;99.90;;;;;;5093429;28;20050;-80
2021/12/10 02:04:28;;;;;;;0.95;0.95;;;4.30;99.90;;;;;;5093609;28;20040;-79
2021/12/10 02:06:55;;;;;;;0.93;0.93;;;4.30;99.90;;;;;;5092492;28;20063;-82
2021/12/10 02:09:21;;;;;;;0.70;0.70;;;4.30;99.90;;;;;;5093360;28;20040;-83
2021/12/10 02:11:47;;;;;;;0.75;0.75;;;4.30;99.90;;;;;;5093274;28;20055;-78
2021/12/10 02:14:14;;;;;;;0.70;0.70;;;4.20;99.90;;;;;;5093440;28;20083;-82
2021/12/10 02:16:40;;;;;;;0.70;0.70;;;4.60;99.90;;;;;;5092049;28;20286;-81
2021/12/10 02:19:08;;;;;;;0.60;0.60;;;4.30;99.90;;;;;;5092464;28;20052;-83
2021/12/10 02:21:36;;;;;;;1.17;1.08;;;4.30;99.90;;;;;;5093367;28;20060;-82
2021/12/10 02:24:03;;;;;;;1.02;0.93;;;4.30;99.90;;;;;;5075667;28;20123;-79
2021/12/10 02:26:36;;;;;;;;;;;4.30;99.90;;;;;;5092632;28;20055;-80
2021/12/10 02:29:03;;;;;;;1.05;0.98;;;4.30;99.90;;;;;;5092326;28;19972;-79
2021/12/10 02:31:29;;;;;;;0.80;0.80;;;4.20;99.90;;;;;;5092244;28;20361;-79
2021/12/10 02:33:55;;;;;;;0.77;0.77;;;4.20;99.90;;;;;;5092075;28;20051;-80
2021/12/10 02:36:25;;;;;;;0.60;0.60;;;4.20;99.90;;;;;;5093081;28;20044;-78
2021/12/10 02:38:53;;;;;;;0.60;0.60;;;4.20;99.90;;;;;;5075355;28;20047;-78
2021/12/10 02:41:21;;;;;;;0.77;0.77;;;4.10;99.90;;;;;;5091846;28;20044;-78
2021/12/10 02:43:47;;;;;;;0.70;0.70;;;4.20;99.90;;;;;;5092783;28;20468;-80
2021/12/10 02:46:14;;;;;;;0.60;0.60;;;4.70;99.90;;;;;;5093367;28;20407;-79
2021/12/10 02:48:40;;;;;;;0.68;0.68;;;5.30;99.90;;;;;;5095338;28;20047;-83
2021/12/10 02:51:07;;;;;;;0.55;0.55;;;4.20;99.90;;;;;;5078936;28;20396;-83
2021/12/10 02:53:40;;;;;;;1.00;1.00;;;4.20;99.90;;;;;;5095230;28;20531;-81
2021/12/10 02:56:06;;;;;;;0.80;0.80;;;4.20;99.90;;;;;;5096523;28;20048;-79
2021/12/10 02:58:32;;;;;;;1.25;1.15;;;4.20;99.90;;;;;;5096154;28;20434;-78
2021/12/10 03:01:04;;;;;;;0.60;0.60;;;4.20;99.90;;;;;;5095556;28;20084;-79
2021/12/10 03:03:30;;;;;;;0.60;0.60;;;4.20;99.90;;;;;;5096543;28;20079;-81
2021/12/10 03:05:56;;;;;;;0.60;0.60;;;4.20;99.90;;;;;;5095480;28;20067;-78
2021/12/10 03:08:22;;;;;;;2.03;1.90;;;4.20;99.90;;;;;;5095463;28;20087;-81
2021/12/10 03:10:48;;;;;;;1.20;1.10;;;4.20;99.90;;;;;;5096171;28;20495;-81
2021/12/10 03:13:14;;;;;;;1.55;1.45;;;4.10;99.90;;;;;;5096236;28;20066;-79
2021/12/10 03:15:41;;;;;;;1.45;1.35;;;4.10;99.90;;;;;;5094949;28;20535;-80
2021/12/10 03:18:10;;;;;;;1.00;1.00;;;4.10;99.90;;;;;;5096455;28;20488;-81
2021/12/10 03:20:37;;;;;;;6.72;2.80;;;4.10;99.90;;;;;;5096028;28;20100;-79
2021/12/10 03:23:04;;;;;;;0.90;0.90;;;4.10;99.90;;;;;;5094943;28;20172;-80
2021/12/10 03:25:30;;;;;;;0.55;0.55;;;4.10;99.90;;;;;;5095058;28;20048;-80
2021/12/10 03:27:56;;;;;;;0.60;0.60;;;4.00;99.90;;;;;;5095993;28;20044;-80
2021/12/10 03:30:26;;;;;;;1.03;0.70;;;4.50;99.90;;;;;;5095703;28;20177;-83
2021/12/10 03:32:53;;;;;;;0.93;0.93;;;4.00;99.90;;;;;;5094842;28;20040;-80
2021/12/10 03:35:24;;;;;;;1.70;1.60;;;4.00;99.90;;;;;;5078458;28;20138;-80
2021/12/10 03:37:50;;;;;;;1.55;1.45;;;3.90;99.90;;;;;;5094883;28;20048;-79
2021/12/10 03:40:17;;;;;;;0.55;0.55;;;4.00;99.90;;;;;;5095746;28;20165;-80
2021/12/10 03:42:43;;;;;;;1.13;1.02;;;4.20;99.90;;;;;;5095667;28;20044;-78
2021/12/10 03:45:11;;;;;;;0.70;0.70;;;4.00;99.90;;;;;;5095706;28;20040;-79
2021/12/10 03:47:37;;;;;;;1.48;1.23;;;3.90;99.90;;;;;;5078132;28;20043;-82
2021/12/10 03:50:05;;;;;;;1.67;1.60;;;3.90;99.90;;;;;;5095614;28;20040;-81
2021/12/10 03:52:31;;;;;;;0.70;0.70;;;3.90;99.90;;;;;;5095541;28;20040;-80
2021/12/10 03:54:59;;;;;;;0.95;0.90;;;4.00;99.90;;;;;;5094067;28;20468;-81
2021/12/10 03:57:24;;;;;;;0.60;0.60;;;3.90;99.90;;;;;;5095555;28;20044;-78
2021/12/10 03:59:50;;;;;;;0.88;0.80;;;3.90;99.90;;;;;;5095178;28;20051;-80
2021/12/10 04:02:16;;;;;;;1.23;1.13;;;3.30;99.90;;;;;;5095229;28;20072;-78
2021/12/10 04:04:47;;;;;;;0.70;0.70;;;3.80;99.90;;;;;;5095106;28;20040;-81
2021/12/10 04:07:18;;;;;;;0.95;0.95;;;3.80;99.90;;;;;;5093999;28;20079;-82
2021/12/10 04:09:44;;;;;;;0.70;0.70;;;3.70;99.90;;;;;;5093706;28;20044;-82
2021/12/10 04:12:10;;;;;;;1.10;1.10;;;3.70;99.90;;;;;;5095822;28;20362;-78
2021/12/10 04:14:37;;;;;;;0.60;0.60;;;3.70;99.90;;;;;;5095490;28;20074;-78
2021/12/10 04:17:04;;;;;;;0.95;0.95;;;3.70;99.90;;;;;;5095221;28;20403;-81
2021/12/10 04:19:32;;;;;;;3.13;2.38;;;3.60;99.90;;;;;;5094086;28;20448;-80
2021/12/10 04:22:00;;;;;;;1.42;1.33;;;3.50;99.90;;;;;;5093608;28;20043;-82
2021/12/10 04:24:30;;;;;;;1.17;1.08;;;3.80;99.90;;;;;;5093822;28;20130;-83
2021/12/10 04:26:57;;;;;;;1.70;1.25;;;3.40;99.90;;;;;;5095046;28;20071;-81
2021/12/10 04:29:23;;;;;;;1.45;1.35;;;3.40;99.90;;;;;;5093991;28;20051;-78
2021/12/10 04:31:52;;;;;;;0.80;0.80;;;3.40;99.90;;;;;;5094778;28;20047;-79
2021/12/10 04:34:20;;;;;;;0.90;0.90;;;3.50;99.90;;;;;;5093932;28;20079;-81
2021/12/10 04:36:46;;;;;;;0.80;0.80;;;3.30;99.90;;;;;;5093593;28;20553;-77
2021/12/10 04:39:12;;;;;;;2.10;1.70;;;3.30;99.90;;;;;;5093670;28;20044;-83
2021/12/10 04:41:38;;;;;;;1.25;1.15;;;3.60;99.90;;;;;;5093471;28;20043;-83
2021/12/10 04:44:04;;;;;;;0.77;0.77;;;3.20;99.90;;;;;;5093776;28;20040;-81
2021/12/10 04:46:30;;;;;;;0.60;0.60;;;3.20;99.90;;;;;;5077153;28;20047;-81
2021/12/10 04:49:04;;;;;;;1.75;1.65;;;3.10;99.90;;;;;;5093827;28;20047;-79
2021/12/10 04:51:34;;;;;;;0.70;0.70;;;3.10;99.90;;;;;;5093419;28;20060;-80
2021/12/10 04:54:01;;;;;;;0.75;0.75;;;3.00;99.90;;;;;;5094305;28;20051;-82
2021/12/10 04:56:28;;;;;;;0.82;0.82;;;3.00;99.90;;;;;;5093913;28;20040;-79
2021/12/10 04:58:54;;;;;;;7.47;3.60;;;2.90;99.90;;;;;;5094328;28;20413;-81
2021/12/10 05:01:20;;;;;;;0.97;0.97;;;3.30;99.90;;;;;;5094237;28;20051;-78
2021/12/10 05:03:45;;;;;;;0.60;0.60;;;2.70;99.90;;;;;;5093242;28;20044;-79
2021/12/10 05:06:11;;;;;;;3.75;2.70;;;2.70;99.90;;;;;;5094069;28;20051;-80
2021/12/10 05:08:39;;;;;;;0.60;0.60;;;2.60;99.90;;;;;;5093196;28;20108;-82
2021/12/10 05:11:07;;;;;;;0.77;0.77;;;2.50;99.90;;;;;;5093482;28;20492;-81
2021/12/10 05:13:32;;;;;;;0.93;0.93;;;2.50;99.90;;;;;;5093470;28;20056;-81
2021/12/10 05:16:00;;;;;;;0.70;0.70;;;3.10;99.90;;;;;;5076106;28;20403;-79
2021/12/10 05:18:31;;;;;;;2.78;2.45;;;2.40;99.90;;;;;;5092840;28;20052;-79
2021/12/10 05:20:57;;;;;;;0.70;0.70;;;2.40;99.90;;;;;;5092984;28;20079;-78
2021/12/10 05:23:23;;;;;;;1.20;0.93;;;2.40;99.90;;;;;;5093164;28;20051;-80
2021/12/10 05:25:50;;;;;;;0.73;0.73;;;2.30;99.90;;;;;;5093872;28;20048;-80
2021/12/10 05:28:16;;;;;;;1.00;1.00;;;1.50;99.90;;;;;;5093906;28;20052;-82
2021/12/10 05:30:43;;;;;;;0.60;0.60;;;2.30;99.90;;;;;;5093904;28;20044;-80
2021/12/10 05:33:15;;;;;;;1.48;1.38;;;2.30;99.90;;;;;;5093776;28;20055;-83
2021/12/10 05:35:41;;;;;;;0.95;0.95;;;2.20;99.90;;;;;;5092586;28;20044;-77
2021/12/10 05:38:07;;;;;;;3.85;3.55;;;2.10;99.90;;;;;;5093858;28;20132;-79
2021/12/10 05:40:33;;;;;;;0.77;0.75;;;2.10;99.90;;;;;;5076474;28;20493;-82
2021/12/10 05:42:58;;;;;;;0.70;0.70;;;2.10;99.90;;;;;;5092416;28;20476;-78
2021/12/10 05:45:24;;;;;;;1.45;1.35;;;2.20;99.90;;;;;;5075995;28;20040;-80
2021/12/10 05:47:51;;;;;;;0.80;0.80;;;2.10;99.90;;;;;;5093724;28;20399;-78
2021/12/10 05:50:21;;;;;;;0.80;0.73;;;2.10;99.90;;;;;;5092999;28;20055;-81
2021/12/10 05:52:47;;;;;;;1.10;1.10;;;2.00;99.90;;;;;;5092263;28;20048;-81
2021/12/10 05:55:14;;;;;;;1.40;1.30;;;2.00;99.90;;;;;;5093308;28;20059;-80
2021/12/10 05:57:40;;;;;;;0.60;0.60;;;1.30;99.90;;;;;;5092640;28;20531;-78
2021/12/10 06:00:09;;;;;;;0.80;0.80;;;1.90;99.90;;;;;;5093551;28;20133;-80
2021/12/10 06:02:35;;;;;;;0.70;0.70;;;1.70;99.90;;;;;;5093380;28;20166;-79
2021/12/10 06:05:01;;;;;;;1.67;1.58;;;2.00;99.90;;;;;;5092831;28;20098;-82
2021/12/10 06:07:26;;;;;;;0.77;0.77;;;1.90;99.90;;;;;;5092557;28;20032;-80
2021/12/10 06:09:52;;;;;;;1.00;0.90;;;1.90;99.90;;;;;;5092549;28;20102;-79
2021/12/10 06:12:18;;;;;;;1.45;1.35;;;1.90;99.90;;;;;;5093622;28;20044;-79
2021/12/10 06:14:43;;;;;;;0.73;0.73;;;1.80;99.90;;;;;;5093432;28;20044;-82
2021/12/10 06:17:09;;;;;;;0.60;0.60;;;1.80;99.90;;;;;;5093317;28;20048;-79
2021/12/10 06:19:35;;;;;;;0.70;0.70;;;1.80;99.90;;;;;;5092178;28;20094;-80
2021/12/10 06:22:01;;;;;;;0.60;0.60;;;3.70;99.90;;;;;;5077406;28;20123;-82
2021/12/10 06:24:26;;;;;;;0.80;0.80;;;1.80;99.90;;;;;;5097202;28;20040;-83
2021/12/10 06:26:52;;;;;;;0.60;0.60;;;1.80;99.90;;;;;;5097181;28;20547;-76
2021/12/10 06:29:23;;;;;;;0.60;0.60;;;1.70;99.90;;;;;;5097225;28;20036;-79
2021/12/10 06:31:48;;;;;;;3.83;3.55;;;1.70;99.90;;;;;;5096034;28;20473;-84
2021/12/10 06:34:14;;;;;;;0.70;0.70;;;1.70;99.90;;;;;;5095820;28;20044;-76
2021/12/10 06:36:40;;;;;;;3.05;2.78;;;1.70;99.90;;;;;;5079048;28;20085;-82
2021/12/10 06:39:06;;;;;;;0.80;0.80;;;1.70;99.90;;;;;;5096029;28;20078;-81
2021/12/10 06:41:32;;;;;;;1.88;1.77;;;1.60;99.90;;;;;;5097022;28;20131;-79
2021/12/10 06:43:58;;;;;;;0.60;0.60;;;1.60;99.90;;;;;;5095263;28;20052;-81
2021/12/10 06:46:24;;;;;;;1.00;1.00;;;1.60;99.90;;;;;;5095289;28;20048;-81
2021/12/10 06:48:49;;;;;;;0.70;0.70;;;1.60;99.90;;;;;;5097462;28;20047;-77
2021/12/10 06:51:19;;;;;;;0.80;0.80;;;1.60;99.90;;;;;;5096717;28;20131;-80
2021/12/10 06:53:46;;;;;;;1.15;1.05;;;1.60;99.90;;;;;;5096170;28;20510;-81
2021/12/10 06:56:13;;;;;;;0.70;0.70;;;1.50;99.90;;;;;;5094975;28;20042;-76
2021/12/10 06:58:39;;;;;;;;;;;1.50;99.90;;;;;;5096951;28;20043;-77
2021/12/10 07:01:27;;;;;;;0.70;0.70;;;1.60;99.90;;;;;;5096373;28;19973;-80
2021/12/10 07:03:54;;;;;;;;;;;1.50;99.90;;;;;;5079679;28;20087;-81
2021/12/10 07:06:21;;;;;;;0.60;0.60;;;0.60;99.90;;;;;;5094756;28;19920;-79
2021/12/10 07:08:47;;;;;;;1.15;1.15;;;1.60;99.90;;;;;;5096333;28;20040;-78
2021/12/10 07:11:16;;;;;;;0.70;0.70;;;1.50;99.90;;;;;;5096326;28;20095;-75
2021/12/10 07:13:45;;;;;;;0.90;0.90;;;1.40;99.90;;;;;;5096329;28;20407;-76
2021/12/10 07:16:12;;;;;;;0.60;0.60;;;1.40;99.90;;;;;;5096479;28;20044;-78
2021/12/10 07:18:38;;;;;;;0.85;0.85;;;1.40;99.90;;;;;;5095029;28;20480;-80
2021/12/10 07:21:05;;;;;;;0.95;0.95;;;1.40;99.90;;;;;;5095959;28;20048;-79
2021/12/10 07:23:31;;;;;;;3.28;3.05;;;1.40;99.90;;;;;;5096009;28;20052;-79
2021/12/10 07:25:56;;;;;;;0.60;0.60;;;1.30;99.90;;;;;;5096062;28;20047;-78
2021/12/10 07:28:22;;;;;;;34.13;11.43;;;1.30;99.90;;;;;;5094854;28;20106;-79
2021/12/10 07:30:49;;;;;;;1.67;1.58;;;1.40;99.90;;;;;;5096151;28;20403;-80
2021/12/10 07:33:16;;;;;;;;;;;1.30;99.90;;;;;;5095714;28;20048;-80
2021/12/10 07:35:44;;;;;;;0.70;0.70;;;1.30;99.90;;;;;;5096343;28;19927;-81
2021/12/10 07:38:09;;;;;;;0.60;0.60;;;1.30;99.90;;;;;;5094842;28;20063;-82
2021/12/10 07:40:36;;;;;;;0.70;0.70;;;1.30;99.90;;;;;;5095778;28;20044;-77
2021/12/10 07:43:04;;;;;;;0.60;0.60;;;1.30;99.90;;;;;;5095567;28;20079;-80
2021/12/10 07:45:29;;;;;;;0.70;0.70;;;1.30;99.90;;;;;;5095905;28;20052;-80
2021/12/10 07:47:57;;;;;;;3.38;2.28;;;1.40;99.90;;;;;;5095640;28;20464;-80
2021/12/10 07:50:28;;;;;;;0.70;0.70;;;1.30;99.90;;;;;;5095257;28;20508;-82
2021/12/10 07:52:56;;;;;;;0.98;0.98;;;1.30;99.90;;;;;;5095546;28;20050;-78
2021/12/10 07:55:24;;;;;;;0.70;0.70;;;1.30;99.90;;;;;;5095193;28;20483;-81
2021/12/10 07:57:51;;;;;;;0.80;0.80;;;1.30;99.90;;;;;;5095383;28;20052;-81
2021/12/10 08:00:20;;;;;;;0.70;0.70;;;1.40;99.90;;;;;;5095699;28;20055;-79
2021/12/10 08:02:47;;;;;;;0.90;0.90;;;1.50;99.90;;;;;;5095230;28;20039;-80
2021/12/10 08:05:13;;;;;;;;;;;1.40;99.90;;;;;;5095344;28;20557;-78
2021/12/10 08:07:39;;;;;;;0.70;0.70;;;1.30;99.90;;;;;;5093865;28;20380;-80
2021/12/10 08:10:06;;;;;;;0.88;0.75;;;1.40;99.90;;;;;;5094837;28;20050;-79
2021/12/10 08:12:32;;;;;;;0.70;0.70;;;1.40;99.90;;;;;;5094993;28;20048;-80
2021/12/10 08:14:58;;;;;;;0.70;0.70;;;1.40;99.90;;;;;;5095040;28;20154;-78
2021/12/10 08:17:26;;;;;;;0.67;0.67;;;1.40;99.90;;;;;;5095005;28;20044;-80
2021/12/10 08:19:53;;;;;;;0.70;0.70;;;1.40;99.90;;;;;;5094903;28;20040;-81
2021/12/10 08:22:19;;;;;;;0.70;0.70;;;1.40;99.90;;;;;;5094933;28;20043;-79
2021/12/10 08:24:46;;;;;;;1.27;1.25;;;1.40;99.90;;;;;;5094876;28;20083;-81
2021/12/10 08:27:12;;;;;;;0.95;0.95;;;1.70;99.90;;;;;;5094858;28;20059;-80
2021/12/10 08:29:40;;;;;;;0.70;0.70;;;1.40;99.90;;;;;;5094861;28;20036;-78
2021/12/10 08:32:06;;;;;;;0.70;0.70;;;1.50;99.90;;;;;;5094708;28;20040;-76
2021/12/10 08:34:31;;;;;;;0.70;0.70;;;1.50;99.90;;;;;;5094936;28;20043;-77
2021/12/10 08:36:57;;;;;;;0.70;0.70;;;1.50;99.90;;;;;;5094521;28;20040;-78
2021/12/10 08:39:23;;;;;;;0.70;0.70;;;1.60;99.90;;;;;;5094468;28;20059;-77
2021/12/10 08:41:49;;;;;;;0.63;0.63;;;1.60;99.90;;;;;;5094621;28;20094;-79
2021/12/10 08:44:15;;;;;;;1.67;1.57;;;1.60;99.90;;;;;;5094066;28;20126;-75
2021/12/10 08:46:43;;;;;;;0.70;0.70;;;1.60;99.90;;;;;;5094127;28;20091;-74
2021/12/10 08:49:10;;;;;;;0.82;0.82;;;1.70;99.90;;;;;;5094535;28;20040;-77
2021/12/10 08:51:40;;;;;;;1.00;1.00;;;1.80;99.90;;;;;;5094465;28;20432;-73
2021/12/10 08:54:07;;;;;;;0.70;0.70;;;1.80;99.90;;;;;;5094413;28;20482;-75
2021/12/10 08:56:35;;;;;;;0.70;0.70;;;1.80;99.90;;;;;;5094317;28;20384;-75
2021/12/10 08:59:02;;;;;;;0.80;0.80;;;2.00;99.90;;;;;;5094416;28;20051;-74
2021/12/10 09:01:30;;;;;;;;;;;1.90;99.90;;;;;;5094633;28;20043;-76
2021/12/10 09:03:57;;;;;;;;;;;1.90;99.90;;;;;;5093465;28;19928;-73
2021/12/10 09:06:24;;;;;;;;;;;2.00;99.90;;;;;;5094308;28;20064;-76
2021/12/10 09:08:50;;;;;;;;;;;1.90;99.90;;;;;;5094330;28;19963;-75
2021/12/10 09:11:16;;;;;;;;;;;2.00;99.90;;;;;;5094905;28;20436;-76
2021/12/10 09:13:42;;;;;;;;;;;2.00;99.90;;;;;;5094531;28;19920;-78
2021/12/10 09:16:13;;;;;;;;;;;4.10;99.90;;;;;;5095021;28;19920;-85
2021/12/10 09:18:40;;;;;;;;;;;2.10;99.90;;;;;;5082630;28;19942;-84
2021/12/10 09:21:08;;;;;;;;;;;2.50;99.90;;;;;;5096872;28;19927;-85
2021/12/10 09:23:34;;;;;;;;;;;2.20;99.90;;;;;;5076632;28;19977;-87
2021/12/10 09:26:01;;;;;;;;;;;2.20;99.90;;;;;;5093309;28;19920;-86
2021/12/10 09:28:27;;;;;;;;;;;2.30;99.90;;;;;;5076541;28;19971;-84
2021/12/10 09:30:53;;;;;;;;;;;2.30;99.90;;;;;;5093383;28;19931;-84
2021/12/10 09:33:19;;;;;;;;;;;2.30;99.90;;;;;;5093282;28;19920;-87
2021/12/10 09:35:45;;;;;;;;;;;2.40;99.90;;;;;;5076321;28;19927;-85
2021/12/10 09:38:11;;;;;;;;;;;2.40;99.90;;;;;;5094232;28;19969;-87
2021/12/10 09:40:40;;;;;;;;;;;2.40;99.90;;;;;;5076821;28;19920;-90
2021/12/10 09:43:06;;;;;;;;;;;2.40;99.90;;;;;;5076344;28;19920;-85
2021/12/10 09:45:32;;;;;;;;;;;2.50;99.90;;;;;;5076427;28;19971;-86
2021/12/10 09:47:58;;;;;;;;;;;2.50;99.90;;;;;;5076448;28;19920;-82
2021/12/10 09:50:27;;;;;;;;;;;1.70;99.90;;;;;;5093129;28;20279;-83
2021/12/10 09:52:54;;;;;;;;;;;2.60;99.90;;;;;;5076465;28;19924;-85
2021/12/10 09:55:20;;;;;;;;;;;2.70;99.90;;;;;;5076237;28;19923;-84
2021/12/10 09:57:46;;;;;;;;;;;2.70;99.90;;;;;;5096371;28;19927;-85
2021/12/10 10:00:15;;;;;;;;;;;2.70;99.90;;;;;;5096950;28;19920;-82
2021/12/10 10:02:41;;;;;;;;;;;2.80;99.90;;;;;;5097096;28;19920;-84
2021/12/10 10:05:07;;;;;;;;;;;2.90;99.90;;;;;;5097365;28;19973;-85
2021/12/10 10:07:35;;;;;;;;;;;2.90;99.90;;;;;;5080202;28;19943;-86
2021/12/10 10:10:12;;;;;;;;;;;2.80;99.90;;;;;;5097257;28;20006;-84
2021/12/10 10:12:40;;;;;;;;;;;3.00;99.90;;;;;;5097835;28;19920;-85
2021/12/10 10:15:08;;;;;;;;;;;3.10;99.90;;;;;;5098014;28;19980;-83
2021/12/10 10:17:34;;;;;;;;;;;3.10;99.90;;;;;;5097207;28;20287;-81
2021/12/10 10:19:59;;;;;;;;;;;3.20;99.90;;;;;;5097408;28;19920;-81
2021/12/10 10:22:26;;;;;;;;;;;3.20;99.90;;;;;;5097971;28;19927;-83
2021/12/10 10:24:53;;;;;;;;;;;3.30;99.90;;;;;;5096300;28;20299;-83
2021/12/10 10:27:20;;;;;;;;;;;3.30;99.90;;;;;;5097551;28;19920;-81
2021/12/10 10:29:57;;;;;;;;;;;3.50;99.90;;;;;;5096350;28;19920;-81
2021/12/10 10:32:45;;;;;;;;;;;3.40;99.90;;;;;;5097493;28;20310;-80
2021/12/10 10:35:15;;;;;;;;;;;3.50;99.90;;;;;;5097517;28;19920;-84
2021/12/10 10:37:41;;;;;;;;;;;3.50;99.90;;;;;;5096636;28;19989;-81
2021/12/10 10:40:08;;;;;;;;;;;2.80;99.90;;;;;;5097418;28;20432;-83
2021/12/10 10:42:33;;;;;;;;;;;3.60;99.90;;;;;;5095989;28;20489;-82
2021/12/10 10:45:05;;;;;;;;;;;3.70;99.90;;;;;;5098047;28;19920;-82
2021/12/10 10:47:30;;;;;;;;;;;3.70;99.90;;;;;;5097821;28;19926;-81
2021/12/10 10:49:58;;;;;;;;;;;3.80;99.90;;;;;;5097171;28;20287;-83
2021/12/10 10:52:28;;;;;;;;;;;3.80;99.90;;;;;;5097126;28;20368;-79
2021/12/10 10:54:54;;;;;;;;;;;4.00;99.90;;;;;;5097129;28;19920;-85
2021/12/10 10:57:24;;;;;;;;;;;4.10;99.90;;;;;;5096844;28;19964;-85
2021/12/10 10:59:54;;;;;;;;;;;4.00;99.90;;;;;;5095783;28;19968;-81
2021/12/10 11:02:19;;;;;;;;;;;4.10;99.90;;;;;;5096873;28;19927;-84
2021/12/10 11:04:47;;;;;;;;;;;4.10;99.90;;;;;;5096861;28;19920;-83
2021/12/10 11:07:21;;;;;;;;;;;4.10;99.90;;;;;;5096593;28;19924;-86
2021/12/10 11:09:52;;;;;;;;;;;4.10;99.90;;;;;;5096548;28;20332;-82
2021/12/10 11:12:20;;;;;;;;;;;4.20;99.90;;;;;;5097095;28;19920;-86
2021/12/10 11:14:51;;;;;;;;;;;4.20;99.90;;;;;;5095501;28;19920;-80
2021/12/10 11:17:28;;;;;;;;;;;4.30;99.90;;;;;;5095241;28;19931;-84
2021/12/10 11:19:59;;;;;;;;;;;4.30;99.90;;;;;;5096814;28;20272;-83
2021/12/10 11:22:25;;;;;;;;;;;4.40;99.90;;;;;;5078433;28;20390;-82
2021/12/10 11:25:02;;;;;;;;;;;4.50;99.90;;;;;;5096507;28;19920;-80
2021/12/10 11:27:36;;;;;;;;;;;4.40;99.90;;;;;;5096999;28;19919;-85
2021/12/10 11:30:01;;;;;;;;;;;4.50;99.90;;;;;;5096798;28;20077;-80
2021/12/10 11:32:38;;;;;;;;;;;4.60;99.90;;;;;;5078834;28;20010;-84
2021/12/10 11:35:10;;;;;;;;;;;4.60;99.90;;;;;;5095897;28;19920;-84
2021/12/10 11:37:43;;;;;;;;;;;4.60;99.90;;;;;;5097014;28;20011;-84
2021/12/10 11:40:22;;;;;;;;;;;4.60;99.90;;;;;;5095889;28;19920;-81
2021/12/10 11:42:55;;;;;;;;;;;4.60;99.90;;;;;;5096173;28;19970;-79
2021/12/10 11:45:34;;;;;;;;;;;4.60;99.90;;;;;;5096182;28;19920;-80
2021/12/10 11:48:22;;;;;;;;;;;4.70;99.90;;;;;;5096525;28;19920;-84
2021/12/10 11:50:57;;;;;;;;;;;4.80;99.90;;;;;;5095934;28;19926;-86
2021/12/10 11:53:22;;;;;;;;;;;4.70;99.90;;;;;;5096495;28;19950;-84
2021/12/10 11:55:55;;;;;;;;;;;5.10;99.90;;;;;;5095901;28;19999;-83
2021/12/10 11:58:20;;;;;;;;;;;4.80;99.90;;;;;;5095904;28;19920;-82
2021/12/10 12:00:46;;;;;;;;;;;4.80;99.90;;;;;;5095763;28;20375;-82
2021/12/10 12:03:12;;;;;;;;;;;4.90;99.90;;;;;;5095740;28;19967;-85
2021/12/10 12:05:40;;;;;;;;;;;4.90;99.90;;;;;;5095806;28;19970;-83
2021/12/10 12:08:07;;;;;;;;;;;4.10;99.90;;;;;;5096286;28;19920;-84
2021/12/10 12:10:39;;;;;;;;;;;4.90;99.90;;;;;;5095615;28;19950;-79
2021/12/10 12:15:44;;;;;;;;;;;5.00;99.90;;;;;;5095545;28;19920;-83
2021/12/10 12:18:30;;;;;;;;;;;5.00;99.90;;;;;;5095254;28;19927;-84
2021/12/10 12:21:00;;;;;;;;;;;5.00;99.90;;;;;;5094184;28;19920;-73
2021/12/10 12:26:21;;;;;;;;;;;5.10;99.90;;;;;;5095493;28;19920;-84
2021/12/10 12:28:52;;;;;;;;;;;5.00;99.90;;;;;;5095191;28;20270;-83
2021/12/10 12:31:20;;;;;;;;;;;5.10;99.90;;;;;;5077036;28;19951;-83
2021/12/10 12:34:05;;;;;;;;;;;5.00;99.90;;;;;;5093363;28;19959;-83
2021/12/10 12:36:34;;;;;;;;;;;4.10;99.90;;;;;;5077106;28;19920;-84
2021/12/10 12:39:01;;;;;;;;;;;5.10;99.90;;;;;;5095181;28;19920;-84
2021/12/10 12:41:32;;;;;;;;;;;5.00;99.90;;;;;;5094990;28;19971;-83
2021/12/10 12:44:07;;;;;;;;;;;5.00;99.90;;;;;;5094969;28;19919;-85
2021/12/10 12:46:32;;;;;;;;;;;5.00;99.90;;;;;;5094280;28;19924;-82
2021/12/10 12:48:59;;;;;;;;;;;5.00;99.90;;;;;;5095088;28;19982;-83
2021/12/10 12:51:25;;;;;;;;;;;5.10;99.90;;;;;;5095211;28;19920;-85
2021/12/10 12:53:53;;;;;;;;;;;5.50;99.90;;;;;;5093732;28;19945;-86
2021/12/10 12:56:20;;;;;;;;;;;5.10;99.90;;;;;;5094796;28;19920;-85
2021/12/10 12:58:48;;;;;;;;;;;4.40;99.90;;;;;;5077148;28;19923;-85
2021/12/10 13:01:34;;;;;;;;;;;5.00;99.90;;;;;;5094699;28;19920;-85
2021/12/10 13:04:02;;;;;;;;;;;5.00;99.90;;;;;;5093468;28;19927;-85
2021/12/10 13:06:28;;;;;;;;;;;4.90;99.90;;;;;;5093719;28;20038;-86
2021/12/10 13:09:03;;;;;;;;;;;4.90;99.90;;;;;;5093443;28;20382;-83
2021/12/10 13:11:32;;;;;;;;;;;4.90;99.90;;;;;;5094507;28;19964;-83
2021/12/10 13:14:11;;;;;;;;;;;4.90;99.90;;;;;;5093564;28;20353;-85
2021/12/10 13:16:40;;;;;;;;;;;4.90;99.90;;;;;;5094424;28;19960;-82
2021/12/10 13:19:08;;;;;;;;;;;4.80;99.90;;;;;;5076489;28;19947;-85
2021/12/10 13:21:34;;;;;;;;;;;4.80;99.90;;;;;;5093396;28;20005;-84
2021/12/10 13:23:59;;;;;;;;;;;4.80;99.90;;;;;;5094903;28;20016;-85
2021/12/10 13:26:25;;;;;;;;;;;4.70;99.90;;;;;;5076662;28;20108;-84
2021/12/10 13:28:50;;;;;;;;;;;4.70;99.90;;;;;;5094299;28;19965;-85
2021/12/10 13:31:17;;;;;;;;;;;4.60;99.90;;;;;;5093683;28;20356;-86
2021/12/10 13:33:44;;;;;;;;;;;4.70;99.90;;;;;;5093386;28;20283;-84
2021/12/10 13:36:11;;;;;;;;;;;4.80;99.90;;;;;;5094175;28;19927;-85
2021/12/10 13:38:37;;;;;;;;;;;4.40;99.90;;;;;;5093951;28;19993;-83
2021/12/10 13:41:04;;;;;;;;;;;4.60;99.90;;;;;;5092970;28;19930;-84
2021/12/10 13:43:30;;;;;;;;;;;4.60;99.90;;;;;;5094102;28;19920;-84
2021/12/10 13:46:07;;;;;;;;;;;4.50;99.90;;;;;;5093343;28;20264;-85
2021/12/10 13:48:42;;;;;;;;;;;4.40;99.90;;;;;;5093313;28;19923;-86
2021/12/10 13:51:08;;;;;;;;;;;4.40;99.90;;;;;;5094076;28;20368;-85
2021/12/10 13:53:34;;;;;;;;;;;4.40;99.90;;;;;;5094125;28;19920;-85